sensor_id;sensor_type;location;lat;lon;timestamp;temperature;humidity
66035;HTU21D;52805;51.074;5.842;2023-03-14T00:01:47;12.31;80.73
66035;HTU21D;52805;51.074;5.842;2023-03-14T00:04:14;12.32;80.80
66035;HTU21D;52805;51.074;5.842;2023-03-14T00:06:40;12.22;80.96
66035;HTU21D;52805;51.074;5.842;2023-03-14T00:09:06;12.20;80.92
66035;HTU21D;52805;51.074;5.842;2023-03-14T00:11:32;12.15;81.10
66035;HTU21D;52805;51.074;5.842;2023-03-14T00:13:57;12.18;80.77
66035;HTU21D;52805;51.074;5.842;2023-03-14T00:16:26;12.10;80.73
66035;HTU21D;52805;51.074;5.842;2023-03-14T00:18:52;12.03;80.89
66035;HTU21D;52805;51.074;5.842;2023-03-14T00:21:19;12.03;80.77
66035;HTU21D;52805;51.074;5.842;2023-03-14T00:23:45;11.97;80.88
66035;HTU21D;52805;51.074;5.842;2023-03-14T00:26:16;11.91;81.03
66035;HTU21D;52805;51.074;5.842;2023-03-14T00:28:43;11.88;80.82
66035;HTU21D;52805;51.074;5.842;2023-03-14T00:31:11;11.87;80.55
66035;HTU21D;52805;51.074;5.842;2023-03-14T00:33:40;11.84;80.52
66035;HTU21D;52805;51.074;5.842;2023-03-14T00:36:09;11.82;80.33
66035;HTU21D;52805;51.074;5.842;2023-03-14T00:38:37;11.79;80.33
66035;HTU21D;52805;51.074;5.842;2023-03-14T00:41:10;11.76;80.30
66035;HTU21D;52805;51.074;5.842;2023-03-14T00:43:36;11.81;79.88
66035;HTU21D;52805;51.074;5.842;2023-03-14T00:46:02;11.75;80.01
66035;HTU21D;52805;51.074;5.842;2023-03-14T00:48:29;11.71;80.20
66035;HTU21D;52805;51.074;5.842;2023-03-14T00:50:55;11.72;80.26
66035;HTU21D;52805;51.074;5.842;2023-03-14T00:53:21;11.72;80.18
66035;HTU21D;52805;51.074;5.842;2023-03-14T00:55:47;11.67;80.38
66035;HTU21D;52805;51.074;5.842;2023-03-14T00:58:16;11.69;80.30
66035;HTU21D;52805;51.074;5.842;2023-03-14T01:00:42;11.66;80.47
66035;HTU21D;52805;51.074;5.842;2023-03-14T01:03:09;11.70;80.40
66035;HTU21D;52805;51.074;5.842;2023-03-14T01:05:36;11.69;80.47
66035;HTU21D;52805;51.074;5.842;2023-03-14T01:08:02;11.72;80.52
66035;HTU21D;52805;51.074;5.842;2023-03-14T01:10:28;11.71;80.43
66035;HTU21D;52805;51.074;5.842;2023-03-14T01:12:54;11.71;80.35
66035;HTU21D;52805;51.074;5.842;2023-03-14T01:15:20;11.67;80.54
66035;HTU21D;52805;51.074;5.842;2023-03-14T01:17:46;11.68;80.57
66035;HTU21D;52805;51.074;5.842;2023-03-14T01:20:14;11.67;80.71
66035;HTU21D;52805;51.074;5.842;2023-03-14T01:22:42;11.63;80.85
66035;HTU21D;52805;51.074;5.842;2023-03-14T01:25:13;11.66;80.90
66035;HTU21D;52805;51.074;5.842;2023-03-14T01:27:39;11.66;81.01
66035;HTU21D;52805;51.074;5.842;2023-03-14T01:30:06;11.68;80.86
66035;HTU21D;52805;51.074;5.842;2023-03-14T01:32:33;11.71;80.81
66035;HTU21D;52805;51.074;5.842;2023-03-14T01:34:59;11.70;80.75
66035;HTU21D;52805;51.074;5.842;2023-03-14T01:37:25;11.70;80.78
66035;HTU21D;52805;51.074;5.842;2023-03-14T01:39:51;11.66;80.90
66035;HTU21D;52805;51.074;5.842;2023-03-14T01:42:18;11.63;80.92
66035;HTU21D;52805;51.074;5.842;2023-03-14T01:44:56;11.60;80.90
66035;HTU21D;52805;51.074;5.842;2023-03-14T01:47:23;11.61;81.04
66035;HTU21D;52805;51.074;5.842;2023-03-14T01:50:04;11.66;80.72
66035;HTU21D;52805;51.074;5.842;2023-03-14T01:52:44;11.64;80.82
66035;HTU21D;52805;51.074;5.842;2023-03-14T01:55:23;11.67;80.80
66035;HTU21D;52805;51.074;5.842;2023-03-14T01:57:58;11.63;80.75
66035;HTU21D;52805;51.074;5.842;2023-03-14T02:00:26;11.66;80.63
66035;HTU21D;52805;51.074;5.842;2023-03-14T02:02:57;11.63;80.59
66035;HTU21D;52805;51.074;5.842;2023-03-14T02:05:26;11.60;80.66
66035;HTU21D;52805;51.074;5.842;2023-03-14T02:07:59;11.56;80.67
66035;HTU21D;52805;51.074;5.842;2023-03-14T02:10:39;11.52;80.81
66035;HTU21D;52805;51.074;5.842;2023-03-14T02:13:08;11.56;80.78
66035;HTU21D;52805;51.074;5.842;2023-03-14T02:16:09;11.53;80.82
66035;HTU21D;52805;51.074;5.842;2023-03-14T02:18:47;11.54;80.86
66035;HTU21D;52805;51.074;5.842;2023-03-14T02:21:36;11.55;80.81
66035;HTU21D;52805;51.074;5.842;2023-03-14T02:27:16;11.55;80.69
66035;HTU21D;52805;51.074;5.842;2023-03-14T02:29:52;11.60;80.43
66035;HTU21D;52805;51.074;5.842;2023-03-14T02:32:20;11.55;80.58
66035;HTU21D;52805;51.074;5.842;2023-03-14T02:34:50;11.57;80.47
66035;HTU21D;52805;51.074;5.842;2023-03-14T02:37:21;11.59;80.49
66035;HTU21D;52805;51.074;5.842;2023-03-14T02:39:48;11.63;80.32
66035;HTU21D;52805;51.074;5.842;2023-03-14T02:42:16;11.64;80.35
66035;HTU21D;52805;51.074;5.842;2023-03-14T02:47:51;11.69;80.35
66035;HTU21D;52805;51.074;5.842;2023-03-14T02:50:24;11.71;80.35
66035;HTU21D;52805;51.074;5.842;2023-03-14T02:52:50;11.68;80.36
66035;HTU21D;52805;51.074;5.842;2023-03-14T02:55:24;11.66;80.48
66035;HTU21D;52805;51.074;5.842;2023-03-14T02:57:53;11.64;80.57
66035;HTU21D;52805;51.074;5.842;2023-03-14T03:00:19;11.66;80.62
66035;HTU21D;52805;51.074;5.842;2023-03-14T03:02:46;11.63;80.72
66035;HTU21D;52805;51.074;5.842;2023-03-14T03:05:13;11.62;80.96
66035;HTU21D;52805;51.074;5.842;2023-03-14T03:07:42;11.63;81.17
66035;HTU21D;52805;51.074;5.842;2023-03-14T03:10:09;11.56;81.34
66035;HTU21D;52805;51.074;5.842;2023-03-14T03:12:34;11.53;82.07
66035;HTU21D;52805;51.074;5.842;2023-03-14T03:15:00;11.44;82.17
66035;HTU21D;52805;51.074;5.842;2023-03-14T03:17:26;11.42;82.46
66035;HTU21D;52805;51.074;5.842;2023-03-14T03:19:52;11.37;82.71
66035;HTU21D;52805;51.074;5.842;2023-03-14T03:22:17;11.33;82.97
66035;HTU21D;52805;51.074;5.842;2023-03-14T03:24:43;11.30;83.23
66035;HTU21D;52805;51.074;5.842;2023-03-14T03:27:09;11.30;83.42
66035;HTU21D;52805;51.074;5.842;2023-03-14T03:29:35;11.30;83.45
66035;HTU21D;52805;51.074;5.842;2023-03-14T03:32:01;11.32;83.54
66035;HTU21D;52805;51.074;5.842;2023-03-14T03:34:28;11.29;83.63
66035;HTU21D;52805;51.074;5.842;2023-03-14T03:36:58;11.28;83.90
66035;HTU21D;52805;51.074;5.842;2023-03-14T03:39:25;11.25;84.31
66035;HTU21D;52805;51.074;5.842;2023-03-14T03:41:51;11.22;84.42
66035;HTU21D;52805;51.074;5.842;2023-03-14T03:44:18;11.25;84.35
66035;HTU21D;52805;51.074;5.842;2023-03-14T03:46:43;11.17;84.59
66035;HTU21D;52805;51.074;5.842;2023-03-14T03:49:09;11.14;84.81
66035;HTU21D;52805;51.074;5.842;2023-03-14T03:51:35;11.14;84.90
66035;HTU21D;52805;51.074;5.842;2023-03-14T03:54:00;11.12;84.84
66035;HTU21D;52805;51.074;5.842;2023-03-14T03:56:30;11.08;85.13
66035;HTU21D;52805;51.074;5.842;2023-03-14T03:58:57;11.04;85.29
66035;HTU21D;52805;51.074;5.842;2023-03-14T04:01:23;11.03;85.49
66035;HTU21D;52805;51.074;5.842;2023-03-14T04:03:53;11.04;85.66
66035;HTU21D;52805;51.074;5.842;2023-03-14T04:06:19;11.05;85.63
66035;HTU21D;52805;51.074;5.842;2023-03-14T04:08:47;11.11;85.58
66035;HTU21D;52805;51.074;5.842;2023-03-14T04:11:27;11.10;85.69
66035;HTU21D;52805;51.074;5.842;2023-03-14T04:14:11;11.11;85.89
66035;HTU21D;52805;51.074;5.842;2023-03-14T04:16:38;11.12;85.95
66035;HTU21D;52805;51.074;5.842;2023-03-14T04:19:10;11.11;86.13
66035;HTU21D;52805;51.074;5.842;2023-03-14T04:21:35;11.10;86.22
66035;HTU21D;52805;51.074;5.842;2023-03-14T04:24:01;11.11;86.36
66035;HTU21D;52805;51.074;5.842;2023-03-14T04:26:30;11.11;86.55
66035;HTU21D;52805;51.074;5.842;2023-03-14T04:28:56;11.18;86.40
66035;HTU21D;52805;51.074;5.842;2023-03-14T04:31:22;11.12;86.51
66035;HTU21D;52805;51.074;5.842;2023-03-14T04:33:49;11.12;86.74
66035;HTU21D;52805;51.074;5.842;2023-03-14T04:36:20;11.16;86.60
66035;HTU21D;52805;51.074;5.842;2023-03-14T04:38:46;11.12;86.81
66035;HTU21D;52805;51.074;5.842;2023-03-14T04:41:15;11.14;86.89
66035;HTU21D;52805;51.074;5.842;2023-03-14T04:43:41;11.23;86.66
66035;HTU21D;52805;51.074;5.842;2023-03-14T04:46:10;11.23;86.38
66035;HTU21D;52805;51.074;5.842;2023-03-14T04:48:35;11.17;86.71
66035;HTU21D;52805;51.074;5.842;2023-03-14T04:51:03;11.15;86.90
66035;HTU21D;52805;51.074;5.842;2023-03-14T04:53:31;11.16;86.77
66035;HTU21D;52805;51.074;5.842;2023-03-14T04:55:58;11.14;86.99
66035;HTU21D;52805;51.074;5.842;2023-03-14T04:58:31;11.13;87.12
66035;HTU21D;52805;51.074;5.842;2023-03-14T05:01:04;11.17;87.07
66035;HTU21D;52805;51.074;5.842;2023-03-14T05:03:38;11.15;87.12
66035;HTU21D;52805;51.074;5.842;2023-03-14T05:06:13;11.12;87.15
66035;HTU21D;52805;51.074;5.842;2023-03-14T05:08:57;11.19;86.69
66035;HTU21D;52805;51.074;5.842;2023-03-14T05:12:02;11.12;87.07
66035;HTU21D;52805;51.074;5.842;2023-03-14T05:14:30;11.08;87.32
66035;HTU21D;52805;51.074;5.842;2023-03-14T05:17:16;11.07;87.56
66035;HTU21D;52805;51.074;5.842;2023-03-14T05:20:04;11.14;87.30
66035;HTU21D;52805;51.074;5.842;2023-03-14T05:22:53;11.08;87.38
66035;HTU21D;52805;51.074;5.842;2023-03-14T05:25:38;11.00;87.73
66035;HTU21D;52805;51.074;5.842;2023-03-14T05:28:29;11.04;87.53
66035;HTU21D;52805;51.074;5.842;2023-03-14T05:31:17;11.01;87.73
66035;HTU21D;52805;51.074;5.842;2023-03-14T05:34:01;11.02;87.80
66035;HTU21D;52805;51.074;5.842;2023-03-14T05:36:39;11.03;87.77
66035;HTU21D;52805;51.074;5.842;2023-03-14T05:39:04;10.97;87.89
66035;HTU21D;52805;51.074;5.842;2023-03-14T05:41:36;10.99;88.14
66035;HTU21D;52805;51.074;5.842;2023-03-14T05:44:21;11.00;88.00
66035;HTU21D;52805;51.074;5.842;2023-03-14T05:47:10;10.99;87.97
66035;HTU21D;52805;51.074;5.842;2023-03-14T05:49:53;10.96;88.20
66035;HTU21D;52805;51.074;5.842;2023-03-14T05:52:39;10.92;88.52
66035;HTU21D;52805;51.074;5.842;2023-03-14T05:55:15;10.95;88.66
66035;HTU21D;52805;51.074;5.842;2023-03-14T05:58:06;11.02;88.35
66035;HTU21D;52805;51.074;5.842;2023-03-14T06:00:50;10.99;88.49
66035;HTU21D;52805;51.074;5.842;2023-03-14T06:03:33;11.00;88.43
66035;HTU21D;52805;51.074;5.842;2023-03-14T06:05:59;11.04;88.20
66035;HTU21D;52805;51.074;5.842;2023-03-14T06:08:25;11.04;88.12
66035;HTU21D;52805;51.074;5.842;2023-03-14T06:10:52;11.03;88.23
66035;HTU21D;52805;51.074;5.842;2023-03-14T06:13:21;11.07;88.20
66035;HTU21D;52805;51.074;5.842;2023-03-14T06:15:46;11.08;88.10
66035;HTU21D;52805;51.074;5.842;2023-03-14T06:18:12;11.10;88.16
66035;HTU21D;52805;51.074;5.842;2023-03-14T06:20:40;11.12;88.21
66035;HTU21D;52805;51.074;5.842;2023-03-14T06:23:08;11.12;88.20
66035;HTU21D;52805;51.074;5.842;2023-03-14T06:25:35;11.15;88.09
66035;HTU21D;52805;51.074;5.842;2023-03-14T06:28:01;11.12;88.26
66035;HTU21D;52805;51.074;5.842;2023-03-14T06:30:27;11.05;88.54
66035;HTU21D;52805;51.074;5.842;2023-03-14T06:32:54;11.11;88.44
66035;HTU21D;52805;51.074;5.842;2023-03-14T06:35:22;11.07;88.79
66035;HTU21D;52805;51.074;5.842;2023-03-14T06:37:48;11.09;88.71
66035;HTU21D;52805;51.074;5.842;2023-03-14T06:40:14;11.12;88.72
66035;HTU21D;52805;51.074;5.842;2023-03-14T06:42:52;11.12;88.73
66035;HTU21D;52805;51.074;5.842;2023-03-14T06:45:20;11.17;88.58
66035;HTU21D;52805;51.074;5.842;2023-03-14T06:47:46;11.19;88.51
66035;HTU21D;52805;51.074;5.842;2023-03-14T06:50:12;11.18;88.80
66035;HTU21D;52805;51.074;5.842;2023-03-14T06:52:39;11.19;88.67
66035;HTU21D;52805;51.074;5.842;2023-03-14T06:55:14;11.24;88.50
66035;HTU21D;52805;51.074;5.842;2023-03-14T06:57:41;11.28;88.35
66035;HTU21D;52805;51.074;5.842;2023-03-14T07:00:07;11.32;88.06
66035;HTU21D;52805;51.074;5.842;2023-03-14T07:02:35;11.37;88.09
66035;HTU21D;52805;51.074;5.842;2023-03-14T07:05:01;11.37;87.84
66035;HTU21D;52805;51.074;5.842;2023-03-14T07:07:27;11.38;87.96
66035;HTU21D;52805;51.074;5.842;2023-03-14T07:09:53;11.41;87.81
66035;HTU21D;52805;51.074;5.842;2023-03-14T07:12:19;11.42;87.91
66035;HTU21D;52805;51.074;5.842;2023-03-14T07:14:44;11.53;87.52
66035;HTU21D;52805;51.074;5.842;2023-03-14T07:17:10;11.52;87.44
66035;HTU21D;52805;51.074;5.842;2023-03-14T07:19:36;11.52;87.47
66035;HTU21D;52805;51.074;5.842;2023-03-14T07:22:04;11.60;87.22
66035;HTU21D;52805;51.074;5.842;2023-03-14T07:24:31;11.61;87.12
66035;HTU21D;52805;51.074;5.842;2023-03-14T07:26:56;11.67;86.90
66035;HTU21D;52805;51.074;5.842;2023-03-14T07:29:22;11.70;86.89
66035;HTU21D;52805;51.074;5.842;2023-03-14T07:31:48;11.81;86.72
66035;HTU21D;52805;51.074;5.842;2023-03-14T07:34:17;11.86;86.31
66035;HTU21D;52805;51.074;5.842;2023-03-14T07:36:44;11.91;86.19
66035;HTU21D;52805;51.074;5.842;2023-03-14T07:39:10;11.90;86.41
66035;HTU21D;52805;51.074;5.842;2023-03-14T07:41:36;12.00;86.08
66035;HTU21D;52805;51.074;5.842;2023-03-14T07:44:20;11.94;86.35
66035;HTU21D;52805;51.074;5.842;2023-03-14T07:46:46;11.93;86.34
66035;HTU21D;52805;51.074;5.842;2023-03-14T07:49:11;11.96;86.55
66035;HTU21D;52805;51.074;5.842;2023-03-14T07:51:37;11.98;86.43
66035;HTU21D;52805;51.074;5.842;2023-03-14T07:54:03;11.99;86.30
66035;HTU21D;52805;51.074;5.842;2023-03-14T07:56:28;11.96;86.23
66035;HTU21D;52805;51.074;5.842;2023-03-14T07:58:54;11.89;86.09
66035;HTU21D;52805;51.074;5.842;2023-03-14T08:01:20;11.81;86.48
66035;HTU21D;52805;51.074;5.842;2023-03-14T08:03:46;11.77;86.69
66035;HTU21D;52805;51.074;5.842;2023-03-14T08:06:11;11.87;86.41
66035;HTU21D;52805;51.074;5.842;2023-03-14T08:08:37;11.79;86.46
66035;HTU21D;52805;51.074;5.842;2023-03-14T08:11:05;11.82;86.58
66035;HTU21D;52805;51.074;5.842;2023-03-14T08:13:34;11.81;86.62
66035;HTU21D;52805;51.074;5.842;2023-03-14T08:16:00;11.83;86.44
66035;HTU21D;52805;51.074;5.842;2023-03-14T08:18:26;11.82;86.29
66035;HTU21D;52805;51.074;5.842;2023-03-14T08:20:51;11.77;84.97
66035;HTU21D;52805;51.074;5.842;2023-03-14T08:23:17;11.61;84.64
66035;HTU21D;52805;51.074;5.842;2023-03-14T08:25:43;11.33;84.19
66035;HTU21D;52805;51.074;5.842;2023-03-14T08:28:08;11.13;83.51
66035;HTU21D;52805;51.074;5.842;2023-03-14T08:30:37;11.01;83.99
66035;HTU21D;52805;51.074;5.842;2023-03-14T08:33:02;10.95;83.25
66035;HTU21D;52805;51.074;5.842;2023-03-14T08:35:28;10.85;83.05
66035;HTU21D;52805;51.074;5.842;2023-03-14T08:37:54;10.71;82.18
66035;HTU21D;52805;51.074;5.842;2023-03-14T08:40:19;10.65;83.47
66035;HTU21D;52805;51.074;5.842;2023-03-14T08:42:46;10.64;83.45
66035;HTU21D;52805;51.074;5.842;2023-03-14T08:45:14;10.56;83.64
66035;HTU21D;52805;51.074;5.842;2023-03-14T08:47:42;10.55;83.74
66035;HTU21D;52805;51.074;5.842;2023-03-14T08:50:09;10.44;83.36
66035;HTU21D;52805;51.074;5.842;2023-03-14T08:52:35;10.38;83.55
66035;HTU21D;52805;51.074;5.842;2023-03-14T08:55:04;10.24;83.65
66035;HTU21D;52805;51.074;5.842;2023-03-14T08:57:30;10.18;83.64
66035;HTU21D;52805;51.074;5.842;2023-03-14T08:59:56;10.09;83.74
66035;HTU21D;52805;51.074;5.842;2023-03-14T09:02:23;9.98;84.09
66035;HTU21D;52805;51.074;5.842;2023-03-14T09:04:51;9.98;83.74
66035;HTU21D;52805;51.074;5.842;2023-03-14T09:07:17;9.91;83.92
66035;HTU21D;52805;51.074;5.842;2023-03-14T09:09:43;9.99;83.89
66035;HTU21D;52805;51.074;5.842;2023-03-14T09:12:09;10.04;83.61
66035;HTU21D;52805;51.074;5.842;2023-03-14T09:14:34;10.15;83.20
66035;HTU21D;52805;51.074;5.842;2023-03-14T09:17:00;10.19;83.27
66035;HTU21D;52805;51.074;5.842;2023-03-14T09:19:26;10.33;82.91
66035;HTU21D;52805;51.074;5.842;2023-03-14T09:21:51;10.39;82.86
66035;HTU21D;52805;51.074;5.842;2023-03-14T09:24:17;10.45;82.52
66035;HTU21D;52805;51.074;5.842;2023-03-14T09:26:43;10.46;82.42
66035;HTU21D;52805;51.074;5.842;2023-03-14T09:29:09;10.53;81.25
66035;HTU21D;52805;51.074;5.842;2023-03-14T09:31:34;10.43;81.45
66035;HTU21D;52805;51.074;5.842;2023-03-14T09:34:00;10.46;82.10
66035;HTU21D;52805;51.074;5.842;2023-03-14T09:36:26;10.44;82.08
66035;HTU21D;52805;51.074;5.842;2023-03-14T09:38:52;10.48;81.80
66035;HTU21D;52805;51.074;5.842;2023-03-14T09:41:26;10.53;81.48
66035;HTU21D;52805;51.074;5.842;2023-03-14T09:44:05;10.41;81.70
66035;HTU21D;52805;51.074;5.842;2023-03-14T09:46:36;10.34;81.68
66035;HTU21D;52805;51.074;5.842;2023-03-14T09:51:42;10.36;81.95
66035;HTU21D;52805;51.074;5.842;2023-03-14T09:56:54;10.28;82.30
66035;HTU21D;52805;51.074;5.842;2023-03-14T09:59:20;10.33;82.55
66035;HTU21D;52805;51.074;5.842;2023-03-14T10:01:46;10.42;82.23
66035;HTU21D;52805;51.074;5.842;2023-03-14T10:04:15;10.49;81.57
66035;HTU21D;52805;51.074;5.842;2023-03-14T10:06:42;10.45;81.18
66035;HTU21D;52805;51.074;5.842;2023-03-14T10:09:21;10.48;81.13
66035;HTU21D;52805;51.074;5.842;2023-03-14T10:11:58;10.59;81.22
66035;HTU21D;52805;51.074;5.842;2023-03-14T10:14:36;10.68;80.83
66035;HTU21D;52805;51.074;5.842;2023-03-14T10:17:09;10.73;80.21
66035;HTU21D;52805;51.074;5.842;2023-03-14T10:19:36;10.69;80.16
66035;HTU21D;52805;51.074;5.842;2023-03-14T10:22:04;10.68;80.40
66035;HTU21D;52805;51.074;5.842;2023-03-14T10:24:35;10.73;80.24
66035;HTU21D;52805;51.074;5.842;2023-03-14T10:27:04;10.74;79.64
66035;HTU21D;52805;51.074;5.842;2023-03-14T10:29:32;10.82;80.25
66035;HTU21D;52805;51.074;5.842;2023-03-14T10:32:05;10.98;79.04
66035;HTU21D;52805;51.074;5.842;2023-03-14T10:34:37;10.90;78.81
66035;HTU21D;52805;51.074;5.842;2023-03-14T10:37:23;10.89;78.69
66035;HTU21D;52805;51.074;5.842;2023-03-14T10:39:53;10.87;78.65
66035;HTU21D;52805;51.074;5.842;2023-03-14T10:42:32;11.00;78.01
66035;HTU21D;52805;51.074;5.842;2023-03-14T10:45:30;10.87;78.05
66035;HTU21D;52805;51.074;5.842;2023-03-14T10:48:04;10.77;77.63
66035;HTU21D;52805;51.074;5.842;2023-03-14T10:50:32;10.60;78.16
66035;HTU21D;52805;51.074;5.842;2023-03-14T10:53:02;10.54;78.08
66035;HTU21D;52805;51.074;5.842;2023-03-14T10:55:42;10.40;78.74
66035;HTU21D;52805;51.074;5.842;2023-03-14T10:58:35;10.01;81.29
66035;HTU21D;52805;51.074;5.842;2023-03-14T11:01:16;9.60;88.25
66035;HTU21D;52805;51.074;5.842;2023-03-14T11:03:56;9.38;85.67
66035;HTU21D;52805;51.074;5.842;2023-03-14T11:09:50;9.15;84.58
66035;HTU21D;52805;51.074;5.842;2023-03-14T11:14:57;8.97;83.39
66035;HTU21D;52805;51.074;5.842;2023-03-14T11:18:21;8.95;83.47
66035;HTU21D;52805;51.074;5.842;2023-03-14T11:20:31;8.96;83.42
66035;HTU21D;52805;51.074;5.842;2023-03-14T11:23:18;9.09;83.02
66035;HTU21D;52805;51.074;5.842;2023-03-14T11:28:51;9.19;81.44
66035;HTU21D;52805;51.074;5.842;2023-03-14T11:31:28;9.27;81.01
66035;HTU21D;52805;51.074;5.842;2023-03-14T11:34:14;9.27;80.07
66035;HTU21D;52805;51.074;5.842;2023-03-14T11:39:20;9.14;80.23
66035;HTU21D;52805;51.074;5.842;2023-03-14T11:41:52;9.15;80.28
66035;HTU21D;52805;51.074;5.842;2023-03-14T11:44:25;9.20;79.43
66035;HTU21D;52805;51.074;5.842;2023-03-14T11:47:03;9.22;79.87
66035;HTU21D;52805;51.074;5.842;2023-03-14T11:49:40;9.29;79.85
66035;HTU21D;52805;51.074;5.842;2023-03-14T11:55:07;9.11;78.21
66035;HTU21D;52805;51.074;5.842;2023-03-14T11:57:36;9.01;78.85
66035;HTU21D;52805;51.074;5.842;2023-03-14T12:00:17;8.81;79.61
66035;HTU21D;52805;51.074;5.842;2023-03-14T12:10:48;8.61;80.11
66035;HTU21D;52805;51.074;5.842;2023-03-14T12:13:17;8.77;79.67
66035;HTU21D;52805;51.074;5.842;2023-03-14T12:16:39;8.90;79.18
66035;HTU21D;52805;51.074;5.842;2023-03-14T12:24:20;9.33;77.76
66035;HTU21D;52805;51.074;5.842;2023-03-14T12:26:56;9.46;77.38
66035;HTU21D;52805;51.074;5.842;2023-03-14T12:29:22;9.64;77.07
66035;HTU21D;52805;51.074;5.842;2023-03-14T12:32:05;9.77;76.68
66035;HTU21D;52805;51.074;5.842;2023-03-14T12:34:33;9.84;74.96
66035;HTU21D;52805;51.074;5.842;2023-03-14T12:39:51;9.91;74.95
66035;HTU21D;52805;51.074;5.842;2023-03-14T12:45:23;9.91;73.92
66035;HTU21D;52805;51.074;5.842;2023-03-14T12:50:35;9.35;72.44
66035;HTU21D;52805;51.074;5.842;2023-03-14T13:00:56;8.44;76.60
66035;HTU21D;52805;51.074;5.842;2023-03-14T13:03:26;8.33;76.87
66035;HTU21D;52805;51.074;5.842;2023-03-14T13:06:03;8.24;77.28
66035;HTU21D;52805;51.074;5.842;2023-03-14T13:08:41;8.19;77.40
66035;HTU21D;52805;51.074;5.842;2023-03-14T13:11:15;8.22;77.69
66035;HTU21D;52805;51.074;5.842;2023-03-14T13:14:01;8.27;77.62
66035;HTU21D;52805;51.074;5.842;2023-03-14T13:16:27;8.27;78.06
66035;HTU21D;52805;51.074;5.842;2023-03-14T13:19:04;8.26;77.16
66035;HTU21D;52805;51.074;5.842;2023-03-14T13:21:37;8.38;77.67
66035;HTU21D;52805;51.074;5.842;2023-03-14T13:24:06;8.46;77.32
66035;HTU21D;52805;51.074;5.842;2023-03-14T13:26:42;8.57;77.50
66035;HTU21D;52805;51.074;5.842;2023-03-14T13:29:29;8.75;77.20
66035;HTU21D;52805;51.074;5.842;2023-03-14T13:32:00;8.83;77.05
66035;HTU21D;52805;51.074;5.842;2023-03-14T13:34:29;9.03;76.50
66035;HTU21D;52805;51.074;5.842;2023-03-14T13:36:56;9.10;76.51
66035;HTU21D;52805;51.074;5.842;2023-03-14T13:39:24;9.27;75.76
66035;HTU21D;52805;51.074;5.842;2023-03-14T13:41:52;9.35;75.16
66035;HTU21D;52805;51.074;5.842;2023-03-14T13:44:30;9.36;74.31
66035;HTU21D;52805;51.074;5.842;2023-03-14T13:47:02;9.40;73.99
66035;HTU21D;52805;51.074;5.842;2023-03-14T13:49:30;9.49;71.54
66035;HTU21D;52805;51.074;5.842;2023-03-14T13:51:59;9.52;73.47
66035;HTU21D;52805;51.074;5.842;2023-03-14T13:54:27;9.56;73.21
66035;HTU21D;52805;51.074;5.842;2023-03-14T13:57:01;9.59;71.03
66035;HTU21D;52805;51.074;5.842;2023-03-14T13:59:30;9.62;72.38
66035;HTU21D;52805;51.074;5.842;2023-03-14T14:02:00;9.64;71.59
66035;HTU21D;52805;51.074;5.842;2023-03-14T14:04:26;9.70;70.27
66035;HTU21D;52805;51.074;5.842;2023-03-14T14:06:59;9.65;70.39
66035;HTU21D;52805;51.074;5.842;2023-03-14T14:09:39;9.68;70.86
66035;HTU21D;52805;51.074;5.842;2023-03-14T14:12:12;9.77;70.74
66035;HTU21D;52805;51.074;5.842;2023-03-14T14:17:49;9.98;69.00
66035;HTU21D;52805;51.074;5.842;2023-03-14T14:20:29;9.99;68.89
66035;HTU21D;52805;51.074;5.842;2023-03-14T14:23:02;9.99;69.27
66035;HTU21D;52805;51.074;5.842;2023-03-14T14:25:29;10.07;69.30
66035;HTU21D;52805;51.074;5.842;2023-03-14T14:27:55;10.20;69.35
66035;HTU21D;52805;51.074;5.842;2023-03-14T14:32:49;10.37;68.60
66035;HTU21D;52805;51.074;5.842;2023-03-14T14:35:41;10.43;68.58
66035;HTU21D;52805;51.074;5.842;2023-03-14T14:38:16;10.55;68.12
66035;HTU21D;52805;51.074;5.842;2023-03-14T14:40:49;10.59;67.44
66035;HTU21D;52805;51.074;5.842;2023-03-14T14:43:28;10.58;67.06
66035;HTU21D;52805;51.074;5.842;2023-03-14T14:45:55;10.55;66.46
66035;HTU21D;52805;51.074;5.842;2023-03-14T14:48:26;10.53;65.76
66035;HTU21D;52805;51.074;5.842;2023-03-14T14:51:03;10.56;65.41
66035;HTU21D;52805;51.074;5.842;2023-03-14T14:53:41;10.63;64.18
66035;HTU21D;52805;51.074;5.842;2023-03-14T14:56:20;10.57;63.27
66035;HTU21D;52805;51.074;5.842;2023-03-14T14:58:55;10.54;62.89
66035;HTU21D;52805;51.074;5.842;2023-03-14T15:01:25;10.54;62.76
66035;HTU21D;52805;51.074;5.842;2023-03-14T15:03:56;10.58;61.54
66035;HTU21D;52805;51.074;5.842;2023-03-14T15:06:25;10.57;61.21
66035;HTU21D;52805;51.074;5.842;2023-03-14T15:08:54;10.55;60.06
66035;HTU21D;52805;51.074;5.842;2023-03-14T15:11:22;10.51;59.64
66035;HTU21D;52805;51.074;5.842;2023-03-14T15:13:52;10.51;58.99
66035;HTU21D;52805;51.074;5.842;2023-03-14T15:16:21;10.45;58.61
66035;HTU21D;52805;51.074;5.842;2023-03-14T15:18:54;10.39;55.26
66035;HTU21D;52805;51.074;5.842;2023-03-14T15:21:22;10.26;54.04
66035;HTU21D;52805;51.074;5.842;2023-03-14T15:23:48;10.13;55.74
66035;HTU21D;52805;51.074;5.842;2023-03-14T15:26:17;10.10;55.28
66035;HTU21D;52805;51.074;5.842;2023-03-14T15:28:43;10.01;56.30
66035;HTU21D;52805;51.074;5.842;2023-03-14T15:31:11;9.95;54.85
66035;HTU21D;52805;51.074;5.842;2023-03-14T15:33:36;9.83;56.45
66035;HTU21D;52805;51.074;5.842;2023-03-14T15:36:03;9.82;56.36
66035;HTU21D;52805;51.074;5.842;2023-03-14T15:38:29;9.69;55.59
66035;HTU21D;52805;51.074;5.842;2023-03-14T15:40:55;9.66;55.01
66035;HTU21D;52805;51.074;5.842;2023-03-14T15:43:21;9.57;54.68
66035;HTU21D;52805;51.074;5.842;2023-03-14T15:45:47;9.51;55.45
66035;HTU21D;52805;51.074;5.842;2023-03-14T15:48:19;9.46;55.10
66035;HTU21D;52805;51.074;5.842;2023-03-14T15:50:45;9.45;55.04
66035;HTU21D;52805;51.074;5.842;2023-03-14T15:53:11;9.37;55.05
66035;HTU21D;52805;51.074;5.842;2023-03-14T15:55:37;9.21;55.24
66035;HTU21D;52805;51.074;5.842;2023-03-14T15:58:03;9.15;54.26
66035;HTU21D;52805;51.074;5.842;2023-03-14T16:00:30;9.11;54.94
66035;HTU21D;52805;51.074;5.842;2023-03-14T16:02:56;9.03;54.04
66035;HTU21D;52805;51.074;5.842;2023-03-14T16:05:22;8.98;55.71
66035;HTU21D;52805;51.074;5.842;2023-03-14T16:07:48;8.98;56.29
66035;HTU21D;52805;51.074;5.842;2023-03-14T16:10:15;8.98;55.54
66035;HTU21D;52805;51.074;5.842;2023-03-14T16:12:41;9.01;56.34
66035;HTU21D;52805;51.074;5.842;2023-03-14T16:15:09;9.02;55.85
66035;HTU21D;52805;51.074;5.842;2023-03-14T16:17:35;9.04;56.53
66035;HTU21D;52805;51.074;5.842;2023-03-14T16:20:03;9.05;56.00
66035;HTU21D;52805;51.074;5.842;2023-03-14T16:22:29;9.09;57.01
66035;HTU21D;52805;51.074;5.842;2023-03-14T16:25:04;9.14;57.13
66035;HTU21D;52805;51.074;5.842;2023-03-14T16:27:30;9.11;56.52
66035;HTU21D;52805;51.074;5.842;2023-03-14T16:29:57;9.03;56.07
66035;HTU21D;52805;51.074;5.842;2023-03-14T16:32:25;8.96;55.90
66035;HTU21D;52805;51.074;5.842;2023-03-14T16:34:51;8.89;54.78
66035;HTU21D;52805;51.074;5.842;2023-03-14T16:37:17;8.89;56.25
66035;HTU21D;52805;51.074;5.842;2023-03-14T16:39:42;8.92;55.54
66035;HTU21D;52805;51.074;5.842;2023-03-14T16:42:08;8.83;54.72